sensor_id;sensor_type;location;lat;lon;timestamp;P1;durP1;ratioP1;P2;durP2;ratioP2
71513;SDS011;59335;46.652;21.272;2023-12-28T00:02:07;9.68;;;5.72;;
71513;SDS011;59335;46.652;21.272;2023-12-28T00:05:10;10.18;;;5.72;;
71513;SDS011;59335;46.652;21.272;2023-12-28T00:08:14;10.00;;;5.57;;
71513;SDS011;59335;46.652;21.272;2023-12-28T00:11:16;10.23;;;5.43;;
71513;SDS011;59335;46.652;21.272;2023-12-28T00:14:20;10.02;;;5.55;;
71513;SDS011;59335;46.652;21.272;2023-12-28T00:17:23;10.27;;;6.10;;
71513;SDS011;59335;46.652;21.272;2023-12-28T00:20:26;10.27;;;6.18;;
71513;SDS011;59335;46.652;21.272;2023-12-28T00:23:28;10.83;;;5.70;;
71513;SDS011;59335;46.652;21.272;2023-12-28T00:26:31;9.75;;;5.68;;
71513;SDS011;59335;46.652;21.272;2023-12-28T00:29:39;9.70;;;5.63;;
71513;SDS011;59335;46.652;21.272;2023-12-28T00:32:43;9.95;;;5.32;;
71513;SDS011;59335;46.652;21.272;2023-12-28T00:35:48;8.93;;;5.25;;
71513;SDS011;59335;46.652;21.272;2023-12-28T00:38:52;11.00;;;5.50;;
71513;SDS011;59335;46.652;21.272;2023-12-28T00:41:55;10.77;;;5.50;;
71513;SDS011;59335;46.652;21.272;2023-12-28T00:44:58;10.10;;;5.53;;
71513;SDS011;59335;46.652;21.272;2023-12-28T00:48:02;10.38;;;5.72;;
71513;SDS011;59335;46.652;21.272;2023-12-28T00:51:05;8.60;;;5.30;;
71513;SDS011;59335;46.652;21.272;2023-12-28T00:54:08;9.60;;;5.07;;
71513;SDS011;59335;46.652;21.272;2023-12-28T00:57:11;9.82;;;5.55;;
71513;SDS011;59335;46.652;21.272;2023-12-28T01:00:15;8.45;;;5.18;;
71513;SDS011;59335;46.652;21.272;2023-12-28T01:03:18;9.80;;;5.53;;
71513;SDS011;59335;46.652;21.272;2023-12-28T01:06:22;9.70;;;5.47;;
71513;SDS011;59335;46.652;21.272;2023-12-28T01:09:32;9.23;;;5.60;;
71513;SDS011;59335;46.652;21.272;2023-12-28T01:12:35;10.85;;;5.40;;
71513;SDS011;59335;46.652;21.272;2023-12-28T01:15:38;10.35;;;4.88;;
71513;SDS011;59335;46.652;21.272;2023-12-28T01:18:41;8.95;;;5.20;;
71513;SDS011;59335;46.652;21.272;2023-12-28T01:21:44;9.27;;;5.65;;
71513;SDS011;59335;46.652;21.272;2023-12-28T01:24:46;10.23;;;5.60;;
71513;SDS011;59335;46.652;21.272;2023-12-28T01:27:52;8.52;;;5.30;;
71513;SDS011;59335;46.652;21.272;2023-12-28T01:30:55;8.73;;;5.22;;
71513;SDS011;59335;46.652;21.272;2023-12-28T01:33:58;9.05;;;5.50;;
71513;SDS011;59335;46.652;21.272;2023-12-28T01:37:01;9.48;;;5.18;;
71513;SDS011;59335;46.652;21.272;2023-12-28T01:40:04;8.60;;;5.30;;
71513;SDS011;59335;46.652;21.272;2023-12-28T01:43:07;7.90;;;4.80;;
71513;SDS011;59335;46.652;21.272;2023-12-28T01:46:15;8.82;;;4.70;;
71513;SDS011;59335;46.652;21.272;2023-12-28T01:49:18;9.02;;;4.95;;
71513;SDS011;59335;46.652;21.272;2023-12-28T01:52:22;10.45;;;5.25;;
71513;SDS011;59335;46.652;21.272;2023-12-28T01:55:25;9.43;;;5.13;;
71513;SDS011;59335;46.652;21.272;2023-12-28T01:58:29;8.68;;;5.10;;
71513;SDS011;59335;46.652;21.272;2023-12-28T02:01:36;8.60;;;4.85;;
71513;SDS011;59335;46.652;21.272;2023-12-28T02:04:39;8.38;;;4.90;;
71513;SDS011;59335;46.652;21.272;2023-12-28T02:07:42;9.43;;;5.03;;
71513;SDS011;59335;46.652;21.272;2023-12-28T02:10:45;8.77;;;5.23;;
71513;SDS011;59335;46.652;21.272;2023-12-28T02:13:48;9.73;;;5.05;;
71513;SDS011;59335;46.652;21.272;2023-12-28T02:16:56;8.90;;;4.55;;
71513;SDS011;59335;46.652;21.272;2023-12-28T02:20:08;8.30;;;4.72;;
71513;SDS011;59335;46.652;21.272;2023-12-28T02:23:13;8.48;;;5.03;;
71513;SDS011;59335;46.652;21.272;2023-12-28T02:26:18;8.73;;;4.50;;
71513;SDS011;59335;46.652;21.272;2023-12-28T02:29:21;8.70;;;4.70;;
71513;SDS011;59335;46.652;21.272;2023-12-28T02:32:28;8.18;;;4.80;;
71513;SDS011;59335;46.652;21.272;2023-12-28T02:35:41;8.52;;;5.05;;
71513;SDS011;59335;46.652;21.272;2023-12-28T02:38:46;9.50;;;5.03;;
71513;SDS011;59335;46.652;21.272;2023-12-28T02:41:51;9.67;;;5.00;;
71513;SDS011;59335;46.652;21.272;2023-12-28T02:44:54;8.70;;;4.57;;
71513;SDS011;59335;46.652;21.272;2023-12-28T02:47:57;8.18;;;4.70;;
71513;SDS011;59335;46.652;21.272;2023-12-28T02:51:00;8.50;;;5.13;;
71513;SDS011;59335;46.652;21.272;2023-12-28T02:54:03;8.82;;;5.10;;
71513;SDS011;59335;46.652;21.272;2023-12-28T02:57:06;7.87;;;4.50;;
71513;SDS011;59335;46.652;21.272;2023-12-28T03:00:09;8.35;;;4.50;;
71513;SDS011;59335;46.652;21.272;2023-12-28T03:03:12;8.60;;;4.88;;
71513;SDS011;59335;46.652;21.272;2023-12-28T03:06:15;8.27;;;4.88;;
71513;SDS011;59335;46.652;21.272;2023-12-28T03:09:19;7.97;;;4.90;;
71513;SDS011;59335;46.652;21.272;2023-12-28T03:12:21;9.03;;;4.60;;
71513;SDS011;59335;46.652;21.272;2023-12-28T03:15:25;8.07;;;5.10;;
71513;SDS011;59335;46.652;21.272;2023-12-28T03:18:27;8.02;;;4.45;;
71513;SDS011;59335;46.652;21.272;2023-12-28T03:21:31;8.23;;;4.93;;
71513;SDS011;59335;46.652;21.272;2023-12-28T03:24:38;8.18;;;5.00;;
71513;SDS011;59335;46.652;21.272;2023-12-28T03:27:41;8.33;;;4.47;;
71513;SDS011;59335;46.652;21.272;2023-12-28T03:30:44;7.53;;;4.50;;
71513;SDS011;59335;46.652;21.272;2023-12-28T03:33:47;8.40;;;4.50;;
71513;SDS011;59335;46.652;21.272;2023-12-28T03:36:50;8.00;;;4.60;;
71513;SDS011;59335;46.652;21.272;2023-12-28T03:39:53;7.68;;;4.60;;
71513;SDS011;59335;46.652;21.272;2023-12-28T03:42:56;8.53;;;4.70;;
71513;SDS011;59335;46.652;21.272;2023-12-28T03:45:59;7.80;;;4.47;;
71513;SDS011;59335;46.652;21.272;2023-12-28T03:49:02;8.15;;;4.57;;
71513;SDS011;59335;46.652;21.272;2023-12-28T03:52:04;7.18;;;4.60;;
71513;SDS011;59335;46.652;21.272;2023-12-28T03:55:08;8.05;;;4.30;;
71513;SDS011;59335;46.652;21.272;2023-12-28T03:58:11;7.37;;;4.70;;
71513;SDS011;59335;46.652;21.272;2023-12-28T04:01:15;7.68;;;4.10;;
71513;SDS011;59335;46.652;21.272;2023-12-28T04:04:20;8.38;;;4.32;;
71513;SDS011;59335;46.652;21.272;2023-12-28T04:07:24;8.02;;;4.43;;
71513;SDS011;59335;46.652;21.272;2023-12-28T04:10:31;7.47;;;4.00;;
71513;SDS011;59335;46.652;21.272;2023-12-28T04:13:35;8.07;;;4.37;;
71513;SDS011;59335;46.652;21.272;2023-12-28T04:16:38;7.40;;;4.28;;
71513;SDS011;59335;46.652;21.272;2023-12-28T04:19:42;7.25;;;4.40;;
71513;SDS011;59335;46.652;21.272;2023-12-28T04:22:45;7.78;;;4.10;;
71513;SDS011;59335;46.652;21.272;2023-12-28T04:25:49;7.70;;;4.28;;
71513;SDS011;59335;46.652;21.272;2023-12-28T04:28:51;8.17;;;4.10;;
71513;SDS011;59335;46.652;21.272;2023-12-28T04:31:54;7.32;;;4.07;;
71513;SDS011;59335;46.652;21.272;2023-12-28T04:34:57;6.50;;;3.60;;
71513;SDS011;59335;46.652;21.272;2023-12-28T04:38:00;7.60;;;3.92;;
71513;SDS011;59335;46.652;21.272;2023-12-28T04:41:03;8.10;;;3.95;;
71513;SDS011;59335;46.652;21.272;2023-12-28T04:44:06;7.20;;;4.20;;
71513;SDS011;59335;46.652;21.272;2023-12-28T04:47:09;6.55;;;3.80;;
71513;SDS011;59335;46.652;21.272;2023-12-28T04:50:12;7.85;;;3.90;;
71513;SDS011;59335;46.652;21.272;2023-12-28T04:53:15;6.60;;;3.70;;
71513;SDS011;59335;46.652;21.272;2023-12-28T04:56:18;7.43;;;3.83;;
71513;SDS011;59335;46.652;21.272;2023-12-28T04:59:21;7.73;;;3.90;;
71513;SDS011;59335;46.652;21.272;2023-12-28T05:02:24;7.05;;;3.92;;
71513;SDS011;59335;46.652;21.272;2023-12-28T05:05:27;6.28;;;3.90;;
71513;SDS011;59335;46.652;21.272;2023-12-28T05:08:30;7.00;;;3.97;;
71513;SDS011;59335;46.652;21.272;2023-12-28T05:11:33;6.60;;;3.50;;
71513;SDS011;59335;46.652;21.272;2023-12-28T05:14:36;7.67;;;4.10;;
71513;SDS011;59335;46.652;21.272;2023-12-28T05:17:38;7.38;;;4.15;;
71513;SDS011;59335;46.652;21.272;2023-12-28T05:20:41;7.70;;;4.00;;
71513;SDS011;59335;46.652;21.272;2023-12-28T05:23:44;7.50;;;4.15;;
71513;SDS011;59335;46.652;21.272;2023-12-28T05:26:46;6.97;;;4.18;;
71513;SDS011;59335;46.652;21.272;2023-12-28T05:29:49;6.77;;;4.00;;
71513;SDS011;59335;46.652;21.272;2023-12-28T05:32:52;7.70;;;4.07;;
71513;SDS011;59335;46.652;21.272;2023-12-28T05:35:56;6.85;;;3.80;;
71513;SDS011;59335;46.652;21.272;2023-12-28T05:38:58;6.53;;;3.88;;
71513;SDS011;59335;46.652;21.272;2023-12-28T05:42:01;7.95;;;4.13;;
71513;SDS011;59335;46.652;21.272;2023-12-28T05:45:04;7.13;;;3.90;;
71513;SDS011;59335;46.652;21.272;2023-12-28T05:48:07;7.03;;;3.90;;
71513;SDS011;59335;46.652;21.272;2023-12-28T05:51:10;6.53;;;3.65;;
71513;SDS011;59335;46.652;21.272;2023-12-28T05:54:13;7.18;;;3.75;;
71513;SDS011;59335;46.652;21.272;2023-12-28T05:57:16;5.97;;;3.38;;
71513;SDS011;59335;46.652;21.272;2023-12-28T06:00:19;6.73;;;3.70;;
71513;SDS011;59335;46.652;21.272;2023-12-28T06:03:22;5.97;;;3.40;;
71513;SDS011;59335;46.652;21.272;2023-12-28T06:06:30;7.25;;;3.70;;
71513;SDS011;59335;46.652;21.272;2023-12-28T06:09:34;7.63;;;4.07;;
71513;SDS011;59335;46.652;21.272;2023-12-28T06:12:37;7.53;;;3.78;;
71513;SDS011;59335;46.652;21.272;2023-12-28T06:15:40;8.13;;;3.77;;
71513;SDS011;59335;46.652;21.272;2023-12-28T06:18:43;6.70;;;3.60;;
71513;SDS011;59335;46.652;21.272;2023-12-28T06:21:46;7.75;;;3.88;;
71513;SDS011;59335;46.652;21.272;2023-12-28T06:24:49;6.47;;;3.63;;
71513;SDS011;59335;46.652;21.272;2023-12-28T06:27:52;6.90;;;3.55;;
71513;SDS011;59335;46.652;21.272;2023-12-28T06:30:55;7.83;;;3.67;;
71513;SDS011;59335;46.652;21.272;2023-12-28T06:34:02;6.70;;;3.88;;
71513;SDS011;59335;46.652;21.272;2023-12-28T06:37:06;6.50;;;3.28;;
71513;SDS011;59335;46.652;21.272;2023-12-28T06:40:09;6.25;;;3.65;;
71513;SDS011;59335;46.652;21.272;2023-12-28T06:43:12;7.28;;;3.85;;
71513;SDS011;59335;46.652;21.272;2023-12-28T06:46:18;6.57;;;3.70;;
71513;SDS011;59335;46.652;21.272;2023-12-28T06:49:21;7.05;;;4.07;;
71513;SDS011;59335;46.652;21.272;2023-12-28T06:52:24;6.75;;;3.58;;
71513;SDS011;59335;46.652;21.272;2023-12-28T06:55:27;7.38;;;4.05;;
71513;SDS011;59335;46.652;21.272;2023-12-28T06:58:31;8.23;;;3.83;;
71513;SDS011;59335;46.652;21.272;2023-12-28T07:01:34;7.07;;;3.70;;
71513;SDS011;59335;46.652;21.272;2023-12-28T07:04:37;7.70;;;4.10;;
71513;SDS011;59335;46.652;21.272;2023-12-28T07:07:40;6.82;;;3.85;;
71513;SDS011;59335;46.652;21.272;2023-12-28T07:10:43;6.90;;;3.58;;
71513;SDS011;59335;46.652;21.272;2023-12-28T07:13:46;7.45;;;4.05;;
71513;SDS011;59335;46.652;21.272;2023-12-28T07:16:49;6.57;;;3.60;;
71513;SDS011;59335;46.652;21.272;2023-12-28T07:19:51;7.80;;;3.95;;
71513;SDS011;59335;46.652;21.272;2023-12-28T07:22:54;6.47;;;3.50;;
71513;SDS011;59335;46.652;21.272;2023-12-28T07:25:57;6.88;;;3.70;;
71513;SDS011;59335;46.652;21.272;2023-12-28T07:29:00;6.85;;;3.65;;
71513;SDS011;59335;46.652;21.272;2023-12-28T07:32:03;7.27;;;3.97;;
71513;SDS011;59335;46.652;21.272;2023-12-28T07:35:06;7.28;;;3.70;;
71513;SDS011;59335;46.652;21.272;2023-12-28T07:38:09;7.57;;;3.72;;
71513;SDS011;59335;46.652;21.272;2023-12-28T07:41:12;7.43;;;3.75;;
71513;SDS011;59335;46.652;21.272;2023-12-28T07:44:14;6.80;;;3.85;;
71513;SDS011;59335;46.652;21.272;2023-12-28T07:47:19;9.20;;;4.00;;
71513;SDS011;59335;46.652;21.272;2023-12-28T07:50:21;7.45;;;4.03;;
71513;SDS011;59335;46.652;21.272;2023-12-28T07:53:24;6.90;;;3.60;;
71513;SDS011;59335;46.652;21.272;2023-12-28T07:56:27;7.25;;;4.35;;
71513;SDS011;59335;46.652;21.272;2023-12-28T07:59:30;6.72;;;3.97;;
71513;SDS011;59335;46.652;21.272;2023-12-28T08:02:33;6.97;;;3.83;;
71513;SDS011;59335;46.652;21.272;2023-12-28T08:05:36;8.15;;;4.38;;
71513;SDS011;59335;46.652;21.272;2023-12-28T08:08:39;8.23;;;4.20;;
71513;SDS011;59335;46.652;21.272;2023-12-28T08:11:43;7.68;;;4.47;;
71513;SDS011;59335;46.652;21.272;2023-12-28T08:14:46;7.53;;;4.22;;
71513;SDS011;59335;46.652;21.272;2023-12-28T08:17:49;8.70;;;4.37;;
71513;SDS011;59335;46.652;21.272;2023-12-28T08:20:52;6.55;;;4.00;;
71513;SDS011;59335;46.652;21.272;2023-12-28T08:23:55;7.65;;;4.25;;
71513;SDS011;59335;46.652;21.272;2023-12-28T08:26:57;7.93;;;4.50;;
71513;SDS011;59335;46.652;21.272;2023-12-28T08:30:01;7.63;;;4.35;;
71513;SDS011;59335;46.652;21.272;2023-12-28T08:33:04;7.47;;;4.40;;
71513;SDS011;59335;46.652;21.272;2023-12-28T08:36:08;8.43;;;4.88;;
71513;SDS011;59335;46.652;21.272;2023-12-28T08:39:11;7.65;;;4.30;;
71513;SDS011;59335;46.652;21.272;2023-12-28T08:42:14;7.85;;;4.63;;
71513;SDS011;59335;46.652;21.272;2023-12-28T08:45:17;9.07;;;4.40;;
71513;SDS011;59335;46.652;21.272;2023-12-28T08:48:20;7.10;;;4.50;;
71513;SDS011;59335;46.652;21.272;2023-12-28T08:51:23;7.13;;;4.43;;
71513;SDS011;59335;46.652;21.272;2023-12-28T08:54:25;6.80;;;4.10;;
71513;SDS011;59335;46.652;21.272;2023-12-28T08:57:28;7.65;;;4.13;;
71513;SDS011;59335;46.652;21.272;2023-12-28T09:00:43;8.07;;;4.30;;
71513;SDS011;59335;46.652;21.272;2023-12-28T09:03:48;8.53;;;4.53;;
71513;SDS011;59335;46.652;21.272;2023-12-28T09:06:55;8.18;;;4.35;;
71513;SDS011;59335;46.652;21.272;2023-12-28T09:09:57;7.35;;;3.97;;
71513;SDS011;59335;46.652;21.272;2023-12-28T09:13:03;8.50;;;4.53;;
71513;SDS011;59335;46.652;21.272;2023-12-28T09:16:09;7.90;;;4.30;;
71513;SDS011;59335;46.652;21.272;2023-12-28T09:19:13;7.33;;;4.10;;
71513;SDS011;59335;46.652;21.272;2023-12-28T09:22:17;7.35;;;4.32;;
71513;SDS011;59335;46.652;21.272;2023-12-28T09:25:19;7.10;;;4.15;;
71513;SDS011;59335;46.652;21.272;2023-12-28T09:28:22;7.78;;;4.07;;
71513;SDS011;59335;46.652;21.272;2023-12-28T09:31:26;8.02;;;4.65;;
71513;SDS011;59335;46.652;21.272;2023-12-28T09:34:29;7.13;;;4.00;;
71513;SDS011;59335;46.652;21.272;2023-12-28T09:37:32;6.57;;;3.90;;
71513;SDS011;59335;46.652;21.272;2023-12-28T09:40:35;7.90;;;4.07;;
71513;SDS011;59335;46.652;21.272;2023-12-28T09:43:54;7.32;;;3.97;;
71513;SDS011;59335;46.652;21.272;2023-12-28T09:47:03;7.55;;;3.80;;
71513;SDS011;59335;46.652;21.272;2023-12-28T09:50:09;7.33;;;4.43;;
71513;SDS011;59335;46.652;21.272;2023-12-28T09:53:15;7.10;;;3.90;;
71513;SDS011;59335;46.652;21.272;2023-12-28T09:56:18;7.07;;;4.07;;
71513;SDS011;59335;46.652;21.272;2023-12-28T09:59:22;7.70;;;3.90;;
71513;SDS011;59335;46.652;21.272;2023-12-28T10:02:26;7.32;;;3.97;;
71513;SDS011;59335;46.652;21.272;2023-12-28T10:05:29;7.60;;;4.27;;
71513;SDS011;59335;46.652;21.272;2023-12-28T10:08:32;7.75;;;3.85;;
71513;SDS011;59335;46.652;21.272;2023-12-28T10:11:35;7.60;;;4.22;;
71513;SDS011;59335;46.652;21.272;2023-12-28T10:14:38;7.07;;;4.03;;
71513;SDS011;59335;46.652;21.272;2023-12-28T10:17:41;7.57;;;3.92;;
71513;SDS011;59335;46.652;21.272;2023-12-28T10:20:48;8.03;;;3.90;;
71513;SDS011;59335;46.652;21.272;2023-12-28T10:23:52;7.07;;;3.95;;
71513;SDS011;59335;46.652;21.272;2023-12-28T10:26:54;7.43;;;4.18;;
71513;SDS011;59335;46.652;21.272;2023-12-28T10:29:57;8.38;;;4.43;;
71513;SDS011;59335;46.652;21.272;2023-12-28T10:33:01;6.85;;;3.65;;
71513;SDS011;59335;46.652;21.272;2023-12-28T10:36:07;7.73;;;3.90;;
71513;SDS011;59335;46.652;21.272;2023-12-28T10:39:12;8.05;;;4.07;;
71513;SDS011;59335;46.652;21.272;2023-12-28T10:45:33;7.45;;;3.80;;
71513;SDS011;59335;46.652;21.272;2023-12-28T10:48:38;9.15;;;4.43;;
71513;SDS011;59335;46.652;21.272;2023-12-28T10:51:44;8.30;;;4.17;;
71513;SDS011;59335;46.652;21.272;2023-12-28T10:58:34;7.03;;;3.80;;
71513;SDS011;59335;46.652;21.272;2023-12-28T11:01:39;7.85;;;4.10;;
71513;SDS011;59335;46.652;21.272;2023-12-28T11:04:46;8.00;;;3.90;;
71513;SDS011;59335;46.652;21.272;2023-12-28T11:07:51;7.07;;;3.90;;
71513;SDS011;59335;46.652;21.272;2023-12-28T11:11:00;7.85;;;4.60;;
71513;SDS011;59335;46.652;21.272;2023-12-28T11:14:05;7.75;;;4.05;;
71513;SDS011;59335;46.652;21.272;2023-12-28T11:17:11;6.43;;;3.72;;
71513;SDS011;59335;46.652;21.272;2023-12-28T11:20:17;7.15;;;3.75;;
71513;SDS011;59335;46.652;21.272;2023-12-28T11:23:21;7.53;;;3.83;;
71513;SDS011;59335;46.652;21.272;2023-12-28T11:26:24;7.18;;;3.65;;
71513;SDS011;59335;46.652;21.272;2023-12-28T11:29:28;7.07;;;3.67;;
71513;SDS011;59335;46.652;21.272;2023-12-28T11:32:33;6.78;;;3.90;;
71513;SDS011;59335;46.652;21.272;2023-12-28T11:35:39;6.95;;;4.03;;
71513;SDS011;59335;46.652;21.272;2023-12-28T11:38:42;7.10;;;4.07;;
71513;SDS011;59335;46.652;21.272;2023-12-28T11:41:45;7.22;;;4.15;;
71513;SDS011;59335;46.652;21.272;2023-12-28T11:44:52;7.43;;;4.00;;
71513;SDS011;59335;46.652;21.272;2023-12-28T11:48:01;7.53;;;4.13;;
71513;SDS011;59335;46.652;21.272;2023-12-28T11:51:06;6.32;;;3.65;;
71513;SDS011;59335;46.652;21.272;2023-12-28T11:54:09;7.87;;;3.93;;
71513;SDS011;59335;46.652;21.272;2023-12-28T11:57:12;6.90;;;4.20;;
71513;SDS011;59335;46.652;21.272;2023-12-28T12:00:15;7.07;;;4.25;;
71513;SDS011;59335;46.652;21.272;2023-12-28T12:03:18;8.10;;;3.83;;
71513;SDS011;59335;46.652;21.272;2023-12-28T12:06:22;6.68;;;3.70;;
71513;SDS011;59335;46.652;21.272;2023-12-28T12:09:26;7.60;;;3.83;;
71513;SDS011;59335;46.652;21.272;2023-12-28T12:12:29;8.00;;;3.97;;
71513;SDS011;59335;46.652;21.272;2023-12-28T12:15:32;7.30;;;3.80;;
71513;SDS011;59335;46.652;21.272;2023-12-28T12:18:35;6.28;;;3.33;;
71513;SDS011;59335;46.652;21.272;2023-12-28T12:21:38;6.82;;;3.80;;
71513;SDS011;59335;46.652;21.272;2023-12-28T12:24:43;6.83;;;3.70;;
71513;SDS011;59335;46.652;21.272;2023-12-28T12:27:47;6.15;;;3.70;;
71513;SDS011;59335;46.652;21.272;2023-12-28T12:30:50;7.03;;;3.90;;
71513;SDS011;59335;46.652;21.272;2023-12-28T12:33:56;6.32;;;3.65;;
71513;SDS011;59335;46.652;21.272;2023-12-28T12:36:59;6.55;;;3.63;;
71513;SDS011;59335;46.652;21.272;2023-12-28T12:40:03;7.10;;;4.23;;
71513;SDS011;59335;46.652;21.272;2023-12-28T12:43:08;8.38;;;3.88;;
71513;SDS011;59335;46.652;21.272;2023-12-28T12:46:12;6.43;;;3.70;;
71513;SDS011;59335;46.652;21.272;2023-12-28T12:49:15;7.20;;;4.28;;
71513;SDS011;59335;46.652;21.272;2023-12-28T12:52:19;7.65;;;3.80;;
71513;SDS011;59335;46.652;21.272;2023-12-28T12:55:23;7.30;;;3.90;;
71513;SDS011;59335;46.652;21.272;2023-12-28T12:58:27;6.07;;;3.70;;
71513;SDS011;59335;46.652;21.272;2023-12-28T13:01:35;6.30;;;3.47;;
71513;SDS011;59335;46.652;21.272;2023-12-28T13:04:38;6.15;;;3.45;;
71513;SDS011;59335;46.652;21.272;2023-12-28T13:07:41;8.30;;;3.90;;
71513;SDS011;59335;46.652;21.272;2023-12-28T13:10:45;7.57;;;3.83;;
71513;SDS011;59335;46.652;21.272;2023-12-28T13:13:48;7.00;;;3.75;;
71513;SDS011;59335;46.652;21.272;2023-12-28T13:16:50;6.80;;;3.72;;
71513;SDS011;59335;46.652;21.272;2023-12-28T13:19:59;6.60;;;3.97;;
71513;SDS011;59335;46.652;21.272;2023-12-28T13:23:02;6.82;;;3.70;;
71513;SDS011;59335;46.652;21.272;2023-12-28T13:26:09;6.97;;;3.93;;
71513;SDS011;59335;46.652;21.272;2023-12-28T13:29:12;8.10;;;4.15;;
71513;SDS011;59335;46.652;21.272;2023-12-28T13:32:16;7.22;;;3.60;;
71513;SDS011;59335;46.652;21.272;2023-12-28T13:35:18;7.22;;;3.88;;
71513;SDS011;59335;46.652;21.272;2023-12-28T13:38:22;7.70;;;3.97;;
71513;SDS011;59335;46.652;21.272;2023-12-28T13:41:24;7.10;;;4.00;;
71513;SDS011;59335;46.652;21.272;2023-12-28T13:44:27;6.97;;;4.22;;
71513;SDS011;59335;46.652;21.272;2023-12-28T13:47:31;6.93;;;4.20;;
71513;SDS011;59335;46.652;21.272;2023-12-28T13:50:33;6.45;;;3.75;;
71513;SDS011;59335;46.652;21.272;2023-12-28T13:53:36;6.72;;;4.07;;
71513;SDS011;59335;46.652;21.272;2023-12-28T13:56:43;6.70;;;3.77;;
71513;SDS011;59335;46.652;21.272;2023-12-28T13:59:47;6.85;;;4.10;;
71513;SDS011;59335;46.652;21.272;2023-12-28T14:02:50;6.13;;;3.95;;
71513;SDS011;59335;46.652;21.272;2023-12-28T14:05:53;7.68;;;4.00;;
71513;SDS011;59335;46.652;21.272;2023-12-28T14:08:56;7.13;;;3.90;;
71513;SDS011;59335;46.652;21.272;2023-12-28T14:11:59;7.07;;;4.00;;
71513;SDS011;59335;46.652;21.272;2023-12-28T14:15:02;6.85;;;3.95;;
71513;SDS011;59335;46.652;21.272;2023-12-28T14:18:06;8.48;;;4.28;;
71513;SDS011;59335;46.652;21.272;2023-12-28T14:21:11;7.45;;;4.35;;
71513;SDS011;59335;46.652;21.272;2023-12-28T14:24:16;7.63;;;4.10;;
71513;SDS011;59335;46.652;21.272;2023-12-28T14:27:19;8.67;;;4.47;;
71513;SDS011;59335;46.652;21.272;2023-12-28T14:30:23;7.55;;;4.07;;
71513;SDS011;59335;46.652;21.272;2023-12-28T14:33:26;7.07;;;3.92;;
71513;SDS011;59335;46.652;21.272;2023-12-28T14:36:30;7.70;;;4.80;;
71513;SDS011;59335;46.652;21.272;2023-12-28T14:39:35;6.97;;;4.20;;
71513;SDS011;59335;46.652;21.272;2023-12-28T14:42:38;7.90;;;4.30;;
71513;SDS011;59335;46.652;21.272;2023-12-28T14:45:41;7.10;;;4.50;;
71513;SDS011;59335;46.652;21.272;2023-12-28T14:48:44;7.70;;;4.28;;
71513;SDS011;59335;46.652;21.272;2023-12-28T14:51:48;7.53;;;4.38;;
71513;SDS011;59335;46.652;21.272;2023-12-28T14:54:51;7.53;;;4.15;;
71513;SDS011;59335;46.652;21.272;2023-12-28T14:57:56;6.57;;;4.10;;
71513;SDS011;59335;46.652;21.272;2023-12-28T15:00:59;8.25;;;4.47;;
71513;SDS011;59335;46.652;21.272;2023-12-28T15:04:03;7.55;;;4.10;;
71513;SDS011;59335;46.652;21.272;2023-12-28T15:07:07;7.07;;;4.30;;
71513;SDS011;59335;46.652;21.272;2023-12-28T15:10:10;7.35;;;4.30;;
71513;SDS011;59335;46.652;21.272;2023-12-28T15:13:14;7.60;;;4.07;;
71513;SDS011;59335;46.652;21.272;2023-12-28T15:16:17;7.30;;;4.40;;
71513;SDS011;59335;46.652;21.272;2023-12-28T15:19:20;8.20;;;4.45;;
71513;SDS011;59335;46.652;21.272;2023-12-28T15:22:23;7.97;;;4.13;;
71513;SDS011;59335;46.652;21.272;2023-12-28T15:25:26;7.13;;;4.53;;
71513;SDS011;59335;46.652;21.272;2023-12-28T15:28:29;8.40;;;4.30;;
71513;SDS011;59335;46.652;21.272;2023-12-28T15:31:36;7.72;;;4.80;;
71513;SDS011;59335;46.652;21.272;2023-12-28T15:34:38;7.13;;;4.40;;
71513;SDS011;59335;46.652;21.272;2023-12-28T15:37:42;9.05;;;4.55;;
71513;SDS011;59335;46.652;21.272;2023-12-28T15:40:45;6.15;;;4.00;;
71513;SDS011;59335;46.652;21.272;2023-12-28T15:43:48;7.03;;;4.43;;
71513;SDS011;59335;46.652;21.272;2023-12-28T15:46:51;8.38;;;4.45;;
71513;SDS011;59335;46.652;21.272;2023-12-28T15:49:54;7.72;;;4.53;;
71513;SDS011;59335;46.652;21.272;2023-12-28T15:52:57;7.30;;;4.40;;
71513;SDS011;59335;46.652;21.272;2023-12-28T15:55:59;8.10;;;4.70;;
71513;SDS011;59335;46.652;21.272;2023-12-28T15:59:18;8.27;;;4.83;;
71513;SDS011;59335;46.652;21.272;2023-12-28T16:02:21;7.90;;;4.68;;
71513;SDS011;59335;46.652;21.272;2023-12-28T16:05:24;7.97;;;4.70;;
71513;SDS011;59335;46.652;21.272;2023-12-28T16:08:30;8.02;;;4.70;;
71513;SDS011;59335;46.652;21.272;2023-12-28T16:11:32;8.10;;;4.88;;
71513;SDS011;59335;46.652;21.272;2023-12-28T16:14:36;7.60;;;4.70;;
71513;SDS011;59335;46.652;21.272;2023-12-28T16:17:39;7.55;;;4.60;;
71513;SDS011;59335;46.652;21.272;2023-12-28T16:20:42;9.77;;;5.07;;
71513;SDS011;59335;46.652;21.272;2023-12-28T16:23:45;8.52;;;4.15;;
71513;SDS011;59335;46.652;21.272;2023-12-28T16:26:48;7.43;;;4.45;;
71513;SDS011;59335;46.652;21.272;2023-12-28T16:29:51;7.53;;;4.57;;
71513;SDS011;59335;46.652;21.272;2023-12-28T16:32:54;8.10;;;4.68;;
71513;SDS011;59335;46.652;21.272;2023-12-28T16:35:56;8.85;;;4.70;;
71513;SDS011;59335;46.652;21.272;2023-12-28T16:38:59;8.18;;;4.80;;
71513;SDS011;59335;46.652;21.272;2023-12-28T16:42:02;8.10;;;4.70;;
71513;SDS011;59335;46.652;21.272;2023-12-28T16:45:06;8.57;;;4.83;;
71513;SDS011;59335;46.652;21.272;2023-12-28T16:48:09;8.30;;;4.97;;
71513;SDS011;59335;46.652;21.272;2023-12-28T16:51:11;8.40;;;4.90;;
71513;SDS011;59335;46.652;21.272;2023-12-28T16:54:15;8.38;;;4.88;;
71513;SDS011;59335;46.652;21.272;2023-12-28T16:57:19;8.80;;;4.95;;
71513;SDS011;59335;46.652;21.272;2023-12-28T17:00:23;9.53;;;5.13;;
71513;SDS011;59335;46.652;21.272;2023-12-28T17:03:26;8.43;;;5.00;;
71513;SDS011;59335;46.652;21.272;2023-12-28T17:06:30;7.40;;;4.50;;
71513;SDS011;59335;46.652;21.272;2023-12-28T17:09:33;10.27;;;4.90;;
71513;SDS011;59335;46.652;21.272;2023-12-28T17:12:37;9.00;;;5.03;;
71513;SDS011;59335;46.652;21.272;2023-12-28T17:15:42;8.43;;;5.23;;
71513;SDS011;59335;46.652;21.272;2023-12-28T17:18:44;9.23;;;5.03;;
71513;SDS011;59335;46.652;21.272;2023-12-28T17:21:47;8.38;;;5.00;;
71513;SDS011;59335;46.652;21.272;2023-12-28T17:24:59;7.88;;;5.18;;
71513;SDS011;59335;46.652;21.272;2023-12-28T17:28:14;8.35;;;5.18;;
71513;SDS011;59335;46.652;21.272;2023-12-28T17:31:19;9.00;;;5.80;;
71513;SDS011;59335;46.652;21.272;2023-12-28T17:34:25;7.93;;;5.22;;
71513;SDS011;59335;46.652;21.272;2023-12-28T17:37:28;9.02;;;5.30;;
71513;SDS011;59335;46.652;21.272;2023-12-28T17:40:31;8.55;;;5.53;;
71513;SDS011;59335;46.652;21.272;2023-12-28T17:43:37;9.20;;;5.30;;
71513;SDS011;59335;46.652;21.272;2023-12-28T17:46:49;8.87;;;5.60;;
71513;SDS011;59335;46.652;21.272;2023-12-28T17:49:56;9.00;;;5.43;;
71513;SDS011;59335;46.652;21.272;2023-12-28T17:53:02;9.25;;;5.65;;
71513;SDS011;59335;46.652;21.272;2023-12-28T17:56:05;9.35;;;5.50;;
71513;SDS011;59335;46.652;21.272;2023-12-28T17:59:20;9.57;;;5.88;;
71513;SDS011;59335;46.652;21.272;2023-12-28T18:02:23;9.45;;;5.70;;
71513;SDS011;59335;46.652;21.272;2023-12-28T18:05:26;8.90;;;5.57;;
71513;SDS011;59335;46.652;21.272;2023-12-28T18:08:29;10.50;;;5.97;;
71513;SDS011;59335;46.652;21.272;2023-12-28T18:11:33;8.88;;;5.85;;
71513;SDS011;59335;46.652;21.272;2023-12-28T18:14:36;9.65;;;5.65;;
71513;SDS011;59335;46.652;21.272;2023-12-28T18:17:39;8.80;;;5.40;;